createdAt,value
2017-09-19T17:30:22.385Z,66.40
2017-09-19T17:32:50.700Z,67.00
2017-09-19T17:35:18.257Z,67.00
2017-09-19T17:37:45.767Z,67.50
2017-09-19T17:40:13.319Z,67.70
2017-09-19T17:42:41.859Z,68.70
2017-09-19T17:45:09.530Z,68.60
2017-09-19T17:47:37.124Z,68.60
2017-09-19T17:50:04.620Z,68.90
2017-09-19T17:52:32.181Z,69.80
2017-09-19T17:54:59.711Z,69.50
2017-09-19T19:01:39.667Z,85.60
2017-09-19T19:06:30.076Z,67.30
2017-09-19T19:14:52.756Z,51.30
2017-09-19T19:17:20.254Z,51.30
2017-09-19T19:19:47.773Z,51.90
2017-09-19T19:22:15.947Z,54.00
2017-09-19T19:24:43.877Z,57.70
2017-09-19T19:27:12.638Z,64.10
2017-09-19T19:29:41.087Z,66.30
2017-09-19T19:32:09.428Z,66.30
2017-09-19T19:34:38.849Z,69.40
2017-09-19T19:37:09.257Z,69.30
2017-09-19T19:39:37.088Z,70.40
2017-09-19T19:42:05.877Z,72.00
2017-09-19T19:44:34.462Z,72.00
2017-09-19T19:47:02.137Z,72.60
2017-09-19T19:49:33.291Z,74.50
2017-09-19T19:52:00.948Z,73.70
2017-09-19T19:54:29.457Z,74.00
2017-09-19T19:56:57.763Z,73.90
2017-09-19T19:59:26.312Z,73.60
2017-09-19T20:01:53.874Z,73.50
2017-09-19T20:04:21.523Z,73.40
2017-09-19T20:06:50.523Z,73.30
2017-09-19T20:09:19.045Z,73.40
2017-09-19T20:11:46.629Z,73.40
2017-09-19T20:14:14.992Z,73.60
2017-09-19T20:16:42.832Z,74.20
2017-09-19T20:19:11.894Z,73.70
2017-09-19T20:21:39.455Z,73.90
2017-09-19T20:24:07.046Z,74.10
2017-09-19T20:26:34.814Z,74.30
2017-09-19T20:29:02.508Z,74.40
2017-09-19T20:31:30.116Z,74.50
2017-09-19T20:33:57.903Z,74.40
2017-09-19T20:36:25.462Z,74.50
2017-09-19T20:38:53.870Z,74.80
2017-09-19T20:41:22.310Z,74.80
2017-09-19T20:43:50.727Z,75.10
2017-09-19T20:46:18.356Z,75.10
2017-09-19T20:48:46.051Z,75.10
2017-09-19T20:51:13.717Z,75.20
2017-09-19T20:53:41.559Z,75.20
2017-09-19T20:56:09.937Z,75.40
2017-09-19T20:58:37.528Z,75.20
2017-09-19T21:01:05.573Z,75.40
2017-09-19T21:03:39.849Z,75.50
2017-09-19T21:06:13.526Z,75.40
2017-09-19T21:08:47.146Z,75.40
2017-09-19T21:11:20.372Z,75.60
2017-09-19T21:13:53.632Z,75.60
2017-09-19T21:16:26.798Z,75.60
2017-09-19T21:19:00.744Z,75.60
2017-09-19T21:21:28.388Z,75.80
2017-09-19T21:23:55.931Z,75.90
2017-09-19T21:26:23.539Z,75.90
2017-09-19T21:28:51.967Z,76.00
2017-09-19T21:31:19.641Z,76.00
2017-09-19T21:33:47.275Z,76.00
2017-09-19T21:36:14.920Z,76.10
2017-09-19T21:38:42.549Z,76.10
2017-09-19T21:41:10.128Z,76.20
2017-09-19T21:43:37.710Z,76.30
2017-09-19T21:46:05.390Z,76.30
2017-09-19T21:48:34.339Z,76.30
2017-09-19T21:51:02.671Z,76.40
2017-09-19T21:53:30.263Z,76.40
2017-09-19T21:55:57.827Z,76.40
2017-09-19T21:58:25.420Z,76.50
2017-09-19T22:00:53.111Z,76.60
2017-09-19T22:03:21.504Z,76.70
2017-09-19T22:05:49.065Z,76.70
2017-09-19T22:08:17.652Z,76.70
2017-09-19T22:10:46.109Z,76.80
2017-09-19T22:13:13.755Z,76.60
2017-09-19T22:15:42.087Z,76.60
2017-09-19T22:18:09.616Z,76.60
2017-09-19T22:20:37.123Z,76.60
2017-09-19T22:23:04.683Z,76.50
2017-09-19T22:25:32.193Z,76.70
2017-09-19T22:27:59.887Z,76.70
2017-09-19T22:30:27.396Z,76.80
2017-09-19T22:32:54.939Z,76.90
2017-09-19T22:35:22.535Z,77.00
2017-09-19T22:37:50.810Z,77.00
2017-09-19T22:40:19.095Z,77.20
2017-09-19T22:42:47.363Z,77.10
2017-09-19T22:45:15.666Z,77.20
2017-09-19T22:47:43.198Z,77.10
2017-09-19T22:50:11.474Z,77.20
2017-09-19T22:52:39.792Z,77.30
2017-09-19T22:55:07.294Z,77.30
2017-09-19T22:57:34.816Z,77.30
2017-09-19T23:00:02.359Z,77.30
2017-09-19T23:02:29.890Z,77.30
2017-09-19T23:04:57.394Z,77.40
2017-09-19T23:07:24.959Z,77.30
2017-09-19T23:09:52.472Z,77.30
2017-09-19T23:12:19.998Z,77.50
2017-09-19T23:14:48.361Z,77.70
2017-09-19T23:17:15.883Z,77.60
2017-09-19T23:19:43.397Z,77.70
2017-09-19T23:22:11.676Z,77.50
2017-09-19T23:24:40.188Z,77.60
2017-09-19T23:27:07.707Z,77.60
2017-09-19T23:29:35.991Z,77.60
2017-09-19T23:32:04.280Z,77.60
2017-09-19T23:34:31.787Z,77.60
2017-09-19T23:36:59.322Z,77.60
2017-09-19T23:39:26.837Z,77.60
2017-09-19T23:41:55.152Z,77.80
2017-09-19T23:44:22.670Z,77.80
2017-09-19T23:46:50.235Z,78.10
2017-09-19T23:49:17.753Z,78.50
2017-09-19T23:51:45.257Z,78.80
2017-09-19T23:54:12.790Z,79.10
2017-09-19T23:56:41.066Z,79.50
2017-09-19T23:59:09.359Z,79.60
